Time;durP1;ratioP1;P1;durP2;ratioP2;P2;SDS_P1;SDS_P2;PMS_P1;PMS_P2;Temp;Humidity;BMP_temperature;BMP_pressure;BME280_temperature;BME280_humidity;BME280_pressure;Samples;Min_cycle;Max_cycle;Signal;HPM_P1;HPM_P2
2021/11/24 00:00:03;;;;;;;;;;;6.80;99.90;;;;;;5011856;28;19933;-76
2021/11/24 00:02:31;;;;;;;;;;;6.70;99.90;;;;;;5008384;28;19933;-75
2021/11/24 00:04:58;;;;;;;;;;;6.80;99.90;;;;;;5009487;28;19933;-76
2021/11/24 00:07:25;;;;;;;;;;;6.80;99.90;;;;;;5007439;28;20431;-76
2021/11/24 00:09:51;;;;;;;;;;;6.70;99.90;;;;;;5008762;28;19947;-75
2021/11/24 00:12:18;;;;;;;;;;;6.70;99.90;;;;;;5008248;28;20456;-76
2021/11/24 00:14:45;;;;;;;;;;;6.70;99.90;;;;;;5007441;28;20380;-75
2021/11/24 00:17:11;;;;;;;;;;;6.80;99.90;;;;;;5010367;28;19965;-75
2021/11/24 00:19:39;;;;;;;;;;;6.80;99.90;;;;;;5009169;28;21865;-75
2021/11/24 00:22:06;;;;;;;;;;;6.80;99.90;;;;;;5006777;28;20015;-75
2021/11/24 00:24:33;;;;;;;;;;;6.80;99.90;;;;;;5013345;28;19936;-75
2021/11/24 00:27:00;;;;;;;;;;;6.80;99.90;;;;;;5009969;28;20475;-75
2021/11/24 00:29:27;;;;;;;;;;;6.80;99.90;;;;;;5007432;28;20012;-75
2021/11/24 00:31:53;;;;;;;;;;;6.80;99.90;;;;;;5007263;28;19929;-75
2021/11/24 00:34:20;;;;;;;;;;;6.80;99.90;;;;;;5007686;28;20016;-75
2021/11/24 00:36:48;;;;;;;;;;;6.80;99.90;;;;;;5008007;28;20020;-76
2021/11/24 00:39:15;;;;;;;;;;;6.80;99.90;;;;;;5008143;28;19925;-76
2021/11/24 00:41:41;;;;;;;;;;;6.80;99.90;;;;;;5005722;28;20010;-75
2021/11/24 00:44:08;;;;;;;;;;;6.80;99.90;;;;;;5009411;28;19933;-75
2021/11/24 00:46:35;;;;;;;;;;;6.90;99.90;;;;;;5006635;28;20393;-74
2021/11/24 00:49:01;;;;;;;;;;;6.90;99.90;;;;;;5006357;28;19940;-75
2021/11/24 00:51:28;;;;;;;;;;;6.90;99.90;;;;;;5007870;28;19930;-74
2021/11/24 00:53:56;;;;;;;;;;;6.80;99.90;;;;;;5007475;28;19939;-75
2021/11/24 00:56:23;;;;;;;;;;;6.80;99.90;;;;;;5007778;28;19940;-74
2021/11/24 00:58:49;;;;;;;;;;;6.90;99.90;;;;;;5009377;28;19933;-75
2021/11/24 01:01:16;;;;;;;;;;;6.80;99.90;;;;;;5010417;28;19933;-75
2021/11/24 01:03:43;;;;;;;;;;;6.90;99.90;;;;;;5008001;28;19936;-76
2021/11/24 01:06:09;;;;;;;;;;;6.90;99.90;;;;;;5008275;28;19936;-76
2021/11/24 01:08:36;;;;;;;;;;;6.90;99.90;;;;;;5007934;28;19935;-76
2021/11/24 01:11:04;;;;;;;;;;;6.90;99.90;;;;;;5012945;28;20387;-76
2021/11/24 01:13:31;;;;;;;;;;;6.80;99.90;;;;;;5008228;28;20054;-77
2021/11/24 01:15:58;;;;;;;;;;;6.80;99.90;;;;;;5008714;28;20302;-76
2021/11/24 01:18:25;;;;;;;;;;;6.80;99.90;;;;;;5007336;28;19940;-78
2021/11/24 01:20:51;;;;;;;;;;;6.80;99.90;;;;;;5015178;28;19951;-76
2021/11/24 01:23:18;;;;;;;;;;;6.90;99.90;;;;;;5007576;28;19925;-76
2021/11/24 01:25:45;;;;;;;;;;;6.90;99.90;;;;;;5011200;28;20296;-77
2021/11/24 01:28:13;;;;;;;;;;;6.90;99.90;;;;;;5011300;28;20015;-76
2021/11/24 01:30:40;;;;;;;;;;;6.90;99.90;;;;;;5011242;28;19931;-76
2021/11/24 01:33:07;;;;;;;;;;;6.90;99.90;;;;;;5008525;28;19940;-78
2021/11/24 01:35:33;;;;;;;;;;;6.90;99.90;;;;;;5009092;28;19939;-76
2021/11/24 01:38:00;;;;;;;;;;;6.90;99.90;;;;;;5007988;28;19925;-78
2021/11/24 01:40:27;;;;;;;;;;;6.90;99.90;;;;;;5007623;28;20319;-78
2021/11/24 01:42:54;;;;;;;;;;;6.90;99.90;;;;;;5005484;28;19932;-78
2021/11/24 01:45:23;;;;;;;;;;;6.90;99.90;;;;;;5010419;28;19929;-78
2021/11/24 01:47:50;;;;;;;;;;;6.90;99.90;;;;;;5006791;28;19934;-77
2021/11/24 01:50:18;;;;;;;;;;;6.90;99.90;;;;;;5007270;28;19934;-77
2021/11/24 01:52:44;;;;;;;;;;;6.90;99.90;;;;;;5008586;28;19937;-78
2021/11/24 01:55:12;;;;;;;;;;;6.90;99.90;;;;;;5007100;28;19936;-77
2021/11/24 01:57:40;;;;;;;;;;;6.90;99.90;;;;;;5015079;28;19949;-76
2021/11/24 02:00:08;;;;;;;;;;;6.90;99.90;;;;;;5009191;28;19937;-77
2021/11/24 02:02:36;;;;;;;;;;;6.80;99.90;;;;;;5008274;28;19988;-76
2021/11/24 02:05:03;;;;;;;;;;;6.70;99.90;;;;;;5008280;28;20380;-76
2021/11/24 02:07:29;;;;;;;;;;;6.70;99.90;;;;;;5007638;28;20490;-77
2021/11/24 02:09:56;;;;;;;;;;;6.70;99.90;;;;;;5008144;28;19943;-77
2021/11/24 02:12:23;;;;;;;;;;;6.70;99.90;;;;;;5006654;28;19929;-77
2021/11/24 02:14:49;;;;;;;;;;;6.70;99.90;;;;;;5007045;28;19941;-76
2021/11/24 02:17:17;;;;;;;;;;;6.70;99.90;;;;;;5007065;28;19933;-78
2021/11/24 02:19:45;;;;;;;;;;;6.70;99.90;;;;;;5015183;28;20307;-76
2021/11/24 02:22:13;;;;;;;;;;;6.70;99.90;;;;;;5007760;28;19932;-75
2021/11/24 02:24:40;;;;;;;;;;;6.70;99.90;;;;;;5009339;28;20273;-76
2021/11/24 02:27:08;;;;;;;;;;;6.70;99.90;;;;;;5007433;28;19933;-76
2021/11/24 02:29:36;;;;;;;;;;;6.70;99.90;;;;;;5007823;28;19936;-76
2021/11/24 02:32:03;;;;;;;;;;;6.60;99.90;;;;;;5005868;28;19933;-76
2021/11/24 02:34:30;;;;;;;;;;;6.70;99.90;;;;;;5006939;28;19932;-75
2021/11/24 02:36:57;;;;;;;;;;;6.70;99.90;;;;;;5010024;28;19933;-76
2021/11/24 02:39:25;;;;;;;;;;;6.70;99.90;;;;;;5014643;28;19967;-75
2021/11/24 02:41:52;;;;;;;;;;;6.70;99.90;;;;;;5008230;28;19933;-77
2021/11/24 02:44:20;;;;;;;;;;;6.80;99.90;;;;;;5007954;28;19926;-76
2021/11/24 02:46:47;;;;;;;;;;;6.70;99.90;;;;;;5008894;28;19929;-76
2021/11/24 02:49:13;;;;;;;;;;;6.70;99.90;;;;;;5007603;28;19930;-76
2021/11/24 02:51:40;;;;;;;;;;;6.70;99.90;;;;;;5007737;28;19936;-76
2021/11/24 02:54:07;;;;;;;;;;;6.70;99.90;;;;;;5008806;28;19933;-76
2021/11/24 02:56:35;;;;;;;;;;;6.60;99.90;;;;;;5007227;28;19940;-76
2021/11/24 02:59:02;;;;;;;;;;;6.60;99.90;;;;;;5010789;28;19929;-76
2021/11/24 03:01:29;;;;;;;;;;;6.60;99.90;;;;;;5010908;28;20028;-79
2021/11/24 03:03:56;;;;;;;;;;;6.50;99.90;;;;;;5014180;28;19935;-77
2021/11/24 03:06:23;;;;;;;;;;;6.60;99.90;;;;;;5013007;28;20036;-77
2021/11/24 03:08:49;;;;;;;;;;;6.50;99.90;;;;;;5013086;28;19925;-76
2021/11/24 03:11:16;;;;;;;;;;;6.50;99.90;;;;;;5015142;28;20488;-77
2021/11/24 03:13:44;;;;;;;;;;;6.50;99.90;;;;;;5014149;28;19934;-76
2021/11/24 03:16:11;;;;;;;;;;;6.50;99.90;;;;;;5008395;28;19929;-77
2021/11/24 03:18:37;;;;;;;;;;;6.50;99.90;;;;;;5007298;28;19926;-76
2021/11/24 03:21:04;;;;;;;;;;;6.50;99.90;;;;;;5006635;28;20012;-75
2021/11/24 03:23:30;;;;;;;;;;;6.40;99.90;;;;;;5006643;28;19933;-76
2021/11/24 03:25:57;;;;;;;;;;;6.40;99.90;;;;;;5009204;28;20028;-75
2021/11/24 03:28:24;;;;;;;;;;;6.40;99.90;;;;;;5012796;28;19951;-76
2021/11/24 03:30:52;;;;;;;;;;;6.40;99.90;;;;;;5005928;28;19929;-75
2021/11/24 03:33:18;;;;;;;;;;;6.40;99.90;;;;;;5004374;28;19929;-75
2021/11/24 03:35:45;;;;;;;;;;;6.40;99.90;;;;;;5007088;28;19926;-75
2021/11/24 03:38:12;;;;;;;;;;;6.40;99.90;;;;;;5008691;28;19941;-75
2021/11/24 03:40:38;;;;;;;;;;;6.40;99.90;;;;;;5010675;28;19980;-75
2021/11/24 03:43:05;;;;;;;;;;;6.40;99.90;;;;;;5008943;28;19929;-76
2021/11/24 03:45:33;;;;;;;;;;;6.40;99.90;;;;;;5010952;28;19939;-76
2021/11/24 03:48:02;;;;;;;;;;;6.40;99.90;;;;;;5016859;28;19945;-76
2021/11/24 03:50:28;;;;;;;;;;;6.40;99.90;;;;;;5009580;28;20384;-75
2021/11/24 03:52:55;;;;;;;;;;;6.40;99.90;;;;;;5004911;28;19925;-76
2021/11/24 03:55:22;;;;;;;;;;;6.40;99.90;;;;;;5005240;28;19936;-76
2021/11/24 03:57:49;;;;;;;;;;;6.40;99.90;;;;;;5005403;28;19932;-76
2021/11/24 04:00:17;;;;;;;;;;;6.40;99.90;;;;;;5007857;28;20403;-75
2021/11/24 04:02:44;;;;;;;;;;;6.50;99.90;;;;;;5006053;28;19925;-76
2021/11/24 04:05:12;;;;;;;;;;;6.40;99.90;;;;;;5005953;28;20320;-75
2021/11/24 04:07:38;;;;;;;;;;;6.40;99.90;;;;;;5004756;28;20389;-75
2021/11/24 04:10:06;;;;;;;;;;;6.50;99.90;;;;;;5006570;28;19925;-76
2021/11/24 04:12:33;;;;;;;;;;;6.50;99.90;;;;;;5007297;28;19933;-75
2021/11/24 04:15:00;;;;;;;;;;;6.50;99.90;;;;;;5008844;28;19943;-75
2021/11/24 04:17:26;;;;;;;;;;;6.50;99.90;;;;;;5008881;28;19937;-76
2021/11/24 04:19:53;;;;;;;;;;;6.50;99.90;;;;;;5011085;28;19933;-77
2021/11/24 04:22:21;;;;;;;;;;;6.50;99.90;;;;;;5016266;28;19933;-76
2021/11/24 04:24:48;;;;;;;;;;;6.40;99.90;;;;;;5020086;28;19926;-77
2021/11/24 04:27:14;;;;;;;;;;;6.50;99.90;;;;;;5013597;28;20426;-76
2021/11/24 04:29:41;;;;;;;;;;;6.50;99.90;;;;;;5007267;28;19936;-76
2021/11/24 04:32:08;;;;;;;;;;;6.50;99.90;;;;;;5006551;28;19934;-76
2021/11/24 04:34:34;;;;;;;;;;;6.50;99.90;;;;;;5009934;28;19937;-76
2021/11/24 04:37:01;;;;;;;;;;;6.50;99.90;;;;;;5007141;28;20020;-76
2021/11/24 04:39:29;;;;;;;;;;;6.50;99.90;;;;;;5012039;28;19933;-77
2021/11/24 04:41:56;;;;;;;;;;;6.50;99.90;;;;;;5010125;28;19933;-76
2021/11/24 04:44:23;;;;;;;;;;;6.50;99.90;;;;;;5011907;28;20418;-76
2021/11/24 04:46:49;;;;;;;;;;;6.50;99.90;;;;;;5010103;28;19932;-76
2021/11/24 04:49:16;;;;;;;;;;;6.50;99.90;;;;;;5009756;28;19968;-76
2021/11/24 04:51:43;;;;;;;;;;;6.60;99.90;;;;;;5012536;28;20453;-77
2021/11/24 04:54:09;;;;;;;;;;;6.60;99.90;;;;;;5010664;28;20384;-77
2021/11/24 04:56:37;;;;;;;;;;;6.60;99.90;;;;;;5007043;28;19937;-77
2021/11/24 04:59:04;;;;;;;;;;;6.60;99.90;;;;;;5007468;28;20305;-77
2021/11/24 05:01:31;;;;;;;;;;;6.60;99.90;;;;;;5008856;28;19933;-76
2021/11/24 05:03:58;;;;;;;;;;;6.60;99.90;;;;;;5007709;28;19939;-76
2021/11/24 05:06:24;;;;;;;;;;;6.60;99.90;;;;;;5009747;28;19936;-77
2021/11/24 05:08:51;;;;;;;;;;;6.60;99.90;;;;;;5006005;28;19936;-77
2021/11/24 05:11:19;;;;;;;;;;;6.60;99.90;;;;;;5007249;28;20170;-76
2021/11/24 05:13:51;;;;;;;;;;;6.60;99.90;;;;;;5005892;28;19933;-75
2021/11/24 05:16:18;;;;;;;;;;;6.70;99.90;;;;;;5011138;28;19984;-77
2021/11/24 05:18:47;;;;;;;;;;;6.70;99.90;;;;;;5011972;28;19969;-76
2021/11/24 05:21:18;;;;;;;;;;;6.70;99.90;;;;;;5008024;28;20303;-76
2021/11/24 05:23:45;;;;;;;;;;;6.70;99.90;;;;;;5009209;28;19947;-78
2021/11/24 05:26:11;;;;;;;;;;;6.70;99.90;;;;;;5016553;28;20028;-80
2021/11/24 05:28:38;;;;;;;;;;;6.70;99.90;;;;;;5007876;28;19925;-76
2021/11/24 05:31:07;;;;;;;;;;;6.70;99.90;;;;;;5007692;28;19929;-77
2021/11/24 05:33:35;;;;;;;;;;;6.70;99.90;;;;;;5005355;28;20415;-76
2021/11/24 05:36:03;;;;;;;;;;;6.70;99.90;;;;;;5007951;28;19953;-77
2021/11/24 05:38:29;;;;;;;;;;;6.70;99.90;;;;;;5011129;28;19933;-76
2021/11/24 05:40:56;;;;;;;;;;;6.70;99.90;;;;;;5007810;28;19969;-76
2021/11/24 05:43:26;;;;;;;;;;;6.70;99.90;;;;;;5006654;28;19933;-75
2021/11/24 05:46:10;;;;;;;;;;;6.70;99.90;;;;;;5001355;28;19969;-76
2021/11/24 05:48:39;;;;;;;;;;;6.60;99.90;;;;;;5003727;28;19944;-77
2021/11/24 05:51:05;;;;;;;;;;;6.60;99.90;;;;;;5005514;28;19937;-75
2021/11/24 05:53:32;;;;;;;;;;;6.60;99.90;;;;;;5007769;28;19956;-76
2021/11/24 05:55:59;;;;;;;;;;;6.60;99.90;;;;;;5001342;28;19929;-77
2021/11/24 05:58:27;;;;;;;;;;;6.60;99.90;;;;;;5004968;28;19929;-77
2021/11/24 06:00:54;;;;;;;;;;;6.70;99.90;;;;;;5007098;28;19925;-76
2021/11/24 06:03:21;;;;;;;;;;;6.70;99.90;;;;;;5005271;28;19925;-76
2021/11/24 06:05:49;;;;;;;;;;;6.70;99.90;;;;;;5006923;28;19939;-76
2021/11/24 06:08:16;;;;;;;;;;;6.70;99.90;;;;;;5006806;28;19932;-76
2021/11/24 06:10:43;;;;;;;;;;;6.70;99.90;;;;;;5006005;28;19929;-76
2021/11/24 06:13:09;;;;;;;;;;;6.70;99.90;;;;;;5004931;28;19933;-77
2021/11/24 06:15:36;;;;;;;;;;;6.70;99.90;;;;;;5008212;28;20369;-77
2021/11/24 06:18:03;;;;;;;;;;;6.60;99.90;;;;;;5009036;28;19952;-76
2021/11/24 06:20:29;;;;;;;;;;;6.60;99.90;;;;;;5008798;28;20016;-76
2021/11/24 06:22:58;;;;;;;;;;;6.60;99.90;;;;;;5007903;28;19933;-76
2021/11/24 06:25:24;;;;;;;;;;;6.60;99.90;;;;;;5012061;28;19929;-75
2021/11/24 06:27:51;;;;;;;;;;;6.50;99.90;;;;;;5005961;28;19943;-76
2021/11/24 06:30:18;;;;;;;;;;;6.50;99.90;;;;;;5006599;28;20351;-76
2021/11/24 06:32:45;;;;;;;;;;;6.40;99.90;;;;;;5005654;28;19934;-76
2021/11/24 06:35:12;;;;;;;;;;;6.40;99.90;;;;;;5008367;28;19933;-76
2021/11/24 06:37:40;;;;;;;;;;;6.40;99.90;;;;;;5005726;28;19925;-75
2021/11/24 06:40:09;;;;;;;;;;;6.50;99.90;;;;;;5009788;28;20142;-76
2021/11/24 06:42:35;;;;;;;;;;;6.50;99.90;;;;;;5009395;28;19925;-78
2021/11/24 06:45:02;;;;;;;;;;;6.50;99.90;;;;;;5012781;28;19932;-78
2021/11/24 06:47:29;;;;;;;;;;;6.50;99.90;;;;;;5007757;28;19939;-77
2021/11/24 06:49:56;;;;;;;;;;;6.40;99.90;;;;;;5005639;28;19936;-77
2021/11/24 06:52:22;;;;;;;;;;;6.40;99.90;;;;;;5012935;28;20026;-78
2021/11/24 06:54:49;;;;;;;;;;;6.30;99.90;;;;;;5006038;28;19936;-75
2021/11/24 06:57:17;;;;;;;;;;;6.30;99.90;;;;;;5004652;28;20406;-76
2021/11/24 06:59:44;;;;;;;;;;;6.30;99.90;;;;;;5003344;28;19933;-77
2021/11/24 07:02:10;;;;;;;;;;;6.40;99.90;;;;;;5007212;28;19929;-77
2021/11/24 07:04:38;;;;;;;;;;;6.40;99.90;;;;;;5006235;28;20079;-77
2021/11/24 07:07:05;;;;;;;;;;;6.40;99.90;;;;;;5010376;28;19940;-77
2021/11/24 07:09:31;;;;;;;;;;;6.40;99.90;;;;;;5006822;28;20049;-77
2021/11/24 07:11:58;;;;;;;;;;;6.40;99.90;;;;;;5007523;28;19939;-77
2021/11/24 07:14:26;;;;;;;;;;;6.40;99.90;;;;;;5007957;28;19925;-77
2021/11/24 07:16:53;;;;;;;;;;;6.30;99.90;;;;;;5007445;28;19941;-76
2021/11/24 07:19:22;;;;;;;;;;;6.30;99.90;;;;;;5008189;28;19932;-77
2021/11/24 07:21:48;;;;;;;;;;;6.30;99.90;;;;;;5005019;28;19932;-74
2021/11/24 07:24:15;;;;;;;;;;;6.30;99.90;;;;;;5009916;28;20442;-75
2021/11/24 07:26:42;;;;;;;;;;;6.30;99.90;;;;;;5008903;28;19926;-75
2021/11/24 07:29:09;;;;;;;;;;;6.30;99.90;;;;;;5009266;28;20020;-76
2021/11/24 07:31:37;;;;;;;;;;;6.30;99.90;;;;;;5007716;28;19926;-74
2021/11/24 07:34:04;;;;;;;;;;;6.40;99.90;;;;;;5007479;28;19933;-76
2021/11/24 07:36:30;;;;;;;;;;;6.40;99.90;;;;;;5008467;28;19932;-76
2021/11/24 07:38:57;;;;;;;;;;;6.40;99.90;;;;;;5005104;28;20388;-77
2021/11/24 07:41:24;;;;;;;;;;;6.50;99.90;;;;;;5009329;28;19995;-77
2021/11/24 07:43:51;;;;;;;;;;;6.50;99.90;;;;;;5009541;28;19944;-76
2021/11/24 07:46:18;;;;;;;;;;;6.50;99.90;;;;;;5016331;28;19929;-76
2021/11/24 07:48:46;;;;;;;;;;;6.50;99.90;;;;;;5026942;28;19932;-77
2021/11/24 07:51:17;;;;;;;;;;;6.50;99.90;;;;;;5028350;28;19925;-76
2021/11/24 07:53:44;;;;;;;;;;;6.50;99.90;;;;;;5026621;28;19971;-77
2021/11/24 07:56:10;;;;;;;;;;;6.50;99.90;;;;;;5025016;28;19933;-77
2021/11/24 07:58:40;;;;;;;;;;;6.50;99.90;;;;;;5033870;28;19932;-78
2021/11/24 08:01:07;;;;;;;;;;;6.40;99.90;;;;;;5026614;28;19929;-76
2021/11/24 08:03:33;;;;;;;;;;;6.40;99.90;;;;;;5040725;28;20387;-75
2021/11/24 08:06:01;;;;;;;;;;;6.40;99.90;;;;;;5027342;28;19972;-76
2021/11/24 08:08:28;;;;;;;;;;;6.50;99.90;;;;;;5019160;28;19929;-76
2021/11/24 08:10:55;;;;;;;;;;;6.50;99.90;;;;;;5015534;28;20127;-78
2021/11/24 08:13:21;;;;;;;;;;;6.50;99.90;;;;;;5011747;28;20502;-76
2021/11/24 08:15:48;;;;;;;;;;;6.50;99.90;;;;;;5010778;28;19941;-76
2021/11/24 08:18:15;;;;;;;;;;;6.40;99.90;;;;;;5009723;28;20012;-74
2021/11/24 08:20:41;;;;;;;;;;;6.50;99.90;;;;;;5026068;28;19933;-73
2021/11/24 08:23:09;;;;;;;;;;;6.50;99.90;;;;;;5030580;28;20004;-76
2021/11/24 08:25:36;;;;;;;;;;;6.40;99.90;;;;;;5034162;28;19931;-76
2021/11/24 08:28:03;;;;;;;;;;;6.50;99.90;;;;;;5025711;28;20000;-73
2021/11/24 08:30:30;;;;;;;;;;;6.50;99.90;;;;;;5026300;28;19925;-74
2021/11/24 08:32:57;;;;;;;;;;;6.60;99.90;;;;;;5035542;28;20039;-75
2021/11/24 08:35:24;;;;;;;;;;;6.60;99.90;;;;;;5037883;28;19932;-75
2021/11/24 08:37:51;;;;;;;;;;;6.60;99.90;;;;;;5023703;28;19976;-75
2021/11/24 08:40:19;;;;;;;;;;;6.60;99.90;;;;;;5028092;28;19925;-75
2021/11/24 08:42:46;;;;;;;;;;;6.60;99.90;;;;;;5032730;28;19925;-76
2021/11/24 08:45:13;;;;;;;;;;;6.60;99.90;;;;;;5041464;28;19987;-76
2021/11/24 08:47:40;;;;;;;;;;;6.60;99.90;;;;;;5031371;28;19932;-76
2021/11/24 08:50:08;;;;;;;;;;;6.70;99.90;;;;;;5028898;28;19929;-77
2021/11/24 08:52:34;;;;;;;;;;;6.80;99.90;;;;;;5034494;28;19936;-76
2021/11/24 08:55:01;;;;;;;;;;;6.70;99.90;;;;;;5035176;28;19929;-76
2021/11/24 08:57:29;;;;;;;;;;;6.80;99.90;;;;;;5034214;28;20016;-76
2021/11/24 08:59:56;;;;;;;;;;;6.80;99.90;;;;;;5032422;28;19925;-76
2021/11/24 09:02:25;;;;;;;;;;;6.70;99.90;;;;;;5027672;28;19925;-76
2021/11/24 09:04:52;;;;;;;;;;;6.80;99.90;;;;;;5025286;28;19925;-77
2021/11/24 09:07:19;;;;;;;;;;;6.90;99.90;;;;;;5037173;28;20015;-76
2021/11/24 09:09:45;;;;;;;;;;;6.80;99.90;;;;;;5033215;28;19925;-76
2021/11/24 09:12:12;;;;;;;;;;;6.70;99.90;;;;;;5023794;28;20266;-75
2021/11/24 09:14:40;;;;;;;;;;;6.80;99.90;;;;;;5028602;28;20000;-76
2021/11/24 09:17:07;;;;;;;;;;;6.80;99.90;;;;;;5031739;28;20038;-76
2021/11/24 09:19:34;;;;;;;;;;;6.80;99.90;;;;;;5031431;28;19926;-76
2021/11/24 09:22:01;;;;;;;;;;;6.70;99.90;;;;;;5019089;28;19926;-76
2021/11/24 09:24:28;;;;;;;;;;;6.70;99.90;;;;;;5028888;28;19941;-76
2021/11/24 09:26:59;;;;;;;;;;;6.80;99.90;;;;;;5017699;28;19973;-76
2021/11/24 09:29:27;;;;;;;;;;;6.90;99.90;;;;;;5027242;28;19932;-78
2021/11/24 09:31:55;;;;;;;;;;;6.90;99.90;;;;;;5033113;28;19932;-75
2021/11/24 09:34:22;;;;;;;;;;;6.70;99.90;;;;;;5030640;28;19932;-76
2021/11/24 09:36:49;;;;;;;;;;;6.80;99.90;;;;;;5023349;28;19932;-74
2021/11/24 09:39:16;;;;;;;;;;;6.80;99.90;;;;;;5019946;28;19926;-75
2021/11/24 09:41:44;;;;;;;;;;;7.00;99.90;;;;;;5017277;28;20392;-75
2021/11/24 09:44:11;;;;;;;;;;;7.10;99.90;;;;;;5018530;28;20013;-75
2021/11/24 09:46:43;;;;;;;;;;;7.10;99.90;;;;;;5019561;28;19931;-76
2021/11/24 09:49:11;;;;;;;;;;;7.10;99.90;;;;;;5018893;28;19926;-75
2021/11/24 09:51:39;;;;;;;;;;;7.20;99.90;;;;;;5028716;28;19944;-74
2021/11/24 09:54:06;;;;;;;;;;;7.10;99.90;;;;;;5019699;28;19926;-75
2021/11/24 09:56:32;;;;;;;;;;;7.10;99.90;;;;;;5020777;28;20399;-75
2021/11/24 09:58:59;;;;;;;;;;;7.20;99.90;;;;;;5025209;28;19964;-76
2021/11/24 10:01:26;;;;;;;;;;;7.20;99.90;;;;;;5017804;28;20366;-75
2021/11/24 10:03:53;;;;;;;;;;;7.20;99.90;;;;;;5013470;28;19995;-74
2021/11/24 10:06:23;;;;;;;;;;;7.10;99.90;;;;;;5018352;28;20012;-75
2021/11/24 10:08:50;;;;;;;;;;;7.10;99.90;;;;;;5018447;28;20003;-76
2021/11/24 10:11:17;;;;;;;;;;;7.10;99.90;;;;;;5018201;28;20028;-75
2021/11/24 10:13:45;;;;;;;;;;;7.20;99.90;;;;;;5016494;28;19925;-76
2021/11/24 10:16:19;;;;;;;;;;;7.30;99.90;;;;;;5016586;28;19987;-74
2021/11/24 10:18:55;;;;;;;;;;;7.50;99.90;;;;;;5028742;28;19932;-74
2021/11/24 10:21:24;;;;;;;;;;;7.40;99.90;;;;;;5028921;28;19964;-76
2021/11/24 10:23:51;;;;;;;;;;;7.30;99.90;;;;;;5012338;28;19976;-78
2021/11/24 10:26:20;;;;;;;;;;;7.40;99.90;;;;;;5015896;28;19952;-76
2021/11/24 10:28:51;;;;;;;;;;;7.30;99.90;;;;;;5017135;28;20408;-77
2021/11/24 10:31:31;;;;;;;;;;;7.30;99.90;;;;;;5014660;28;20012;-77
2021/11/24 10:33:58;;;;;;;;;;;7.40;99.90;;;;;;5016782;28;19981;-77
2021/11/24 10:36:27;;;;;;;;;;;7.50;99.90;;;;;;5016015;28;19932;-77
2021/11/24 10:38:55;;;;;;;;;;;7.40;99.90;;;;;;5022958;28;19928;-76
2021/11/24 10:41:35;;;;;;;;;;;7.50;99.90;;;;;;5015235;28;19975;-78
2021/11/24 10:44:03;;;;;;;;;;;7.50;99.90;;;;;;5017650;28;19925;-83
2021/11/24 10:46:30;;;;;;;;;;;7.50;99.90;;;;;;5024630;28;19932;-81
2021/11/24 10:49:01;;;;;;;;;;;7.70;99.90;;;;;;5024713;28;20392;-78
2021/11/24 10:51:31;;;;;;;;;;;7.70;99.90;;;;;;5021267;28;20396;-79
2021/11/24 10:54:04;;;;;;;;;;;7.70;99.90;;;;;;5016860;28;19926;-75
2021/11/24 10:56:31;;;;;;;;;;;7.70;99.90;;;;;;5030139;28;19933;-78
2021/11/24 10:59:13;;;;;;;;;;;7.70;99.90;;;;;;5013563;28;19933;-78
2021/11/24 11:01:39;;;;;;;;;;;7.70;99.90;;;;;;5022023;28;19925;-77
2021/11/24 11:04:08;;;;;;;;;;;7.90;99.90;;;;;;5023725;28;19933;-78
2021/11/24 11:06:37;;;;;;;;;;;7.90;99.90;;;;;;5015798;28;19937;-80
2021/11/24 11:09:04;;;;;;;;;;;8.00;99.90;;;;;;5018107;28;20027;-79
2021/11/24 11:11:32;;;;;;;;;;;8.00;99.90;;;;;;5025871;28;19925;-77
2021/11/24 11:14:18;;;;;;;;;;;8.10;99.90;;;;;;5013636;28;19933;-78
2021/11/24 11:16:46;;;;;;;;;;;8.10;99.90;;;;;;5014830;28;19944;-77
2021/11/24 11:19:34;;;;;;;;;;;8.20;99.90;;;;;;5020378;28;20038;-77
2021/11/24 11:22:02;;;;;;;;;;;8.30;99.90;;;;;;5020073;28;20020;-77
2021/11/24 11:24:29;;;;;;;;;;;8.30;99.90;;;;;;5015708;28;20033;-77
2021/11/24 11:26:56;;;;;;;;;;;8.30;99.90;;;;;;5021022;28;20159;-79
2021/11/24 11:29:23;;;;;;;;;;;8.40;99.90;;;;;;5026429;28;19936;-82
2021/11/24 11:31:51;;;;;;;;;;;8.30;99.90;;;;;;5015659;28;20252;-77
2021/11/24 11:34:17;;;;;;;;;;;8.30;99.90;;;;;;5020130;28;19937;-77
2021/11/24 11:36:44;;;;;;;;;;;8.20;99.90;;;;;;5027353;28;20008;-77
2021/11/24 11:39:12;;;;;;;;;;;8.20;99.90;;;;;;5024031;28;20008;-76
2021/11/24 11:41:41;;;;;;;;;;;8.20;99.90;;;;;;5026854;28;19931;-76
2021/11/24 11:44:12;;;;;;;;;;;8.20;99.90;;;;;;5019574;28;20388;-75
2021/11/24 11:46:41;;;;;;;;;;;8.20;99.90;;;;;;5012135;28;20008;-77
2021/11/24 11:49:11;;;;;;;;;;;8.20;99.90;;;;;;5018966;28;19925;-78
2021/11/24 11:51:38;;;;;;;;;;;8.10;99.90;;;;;;5020070;28;19929;-76
2021/11/24 11:54:06;;;;;;;;;;;8.00;99.90;;;;;;5022273;28;19932;-80
2021/11/24 11:56:35;;;;;;;;;;;8.00;99.90;;;;;;5018858;28;20008;-77
2021/11/24 11:59:03;;;;;;;;;;;8.00;99.90;;;;;;5018437;28;19925;-77
2021/11/24 12:01:31;;;;;;;;;;;8.10;99.90;;;;;;5022830;28;20299;-78
2021/11/24 12:04:00;;;;;;;;;;;8.30;99.90;;;;;;5025393;28;19925;-77
2021/11/24 12:06:28;;;;;;;;;;;8.10;99.90;;;;;;5015297;28;19934;-77
2021/11/24 12:09:12;;;;;;;;;;;7.90;99.90;;;;;;5023751;28;19937;-77
2021/11/24 12:11:57;;;;;;;;;;;7.80;99.90;;;;;;5016777;28;20407;-76
2021/11/24 12:14:45;;;;;;;;;;;7.80;99.90;;;;;;5018404;28;19936;-78
2021/11/24 12:17:33;;;;;;;;;;;8.00;99.90;;;;;;5023009;28;19925;-76
2021/11/24 12:20:01;;;;;;;;;;;7.90;99.90;;;;;;5017173;28;19932;-78
2021/11/24 12:22:51;;;;;;;;;;;8.00;99.90;;;;;;5016471;28;20012;-78
2021/11/24 12:25:32;;;;;;;;;;;8.00;99.90;;;;;;5020935;28;19925;-77
2021/11/24 12:28:07;;;;;;;;;;;8.00;99.90;;;;;;5021723;28;20008;-76
2021/11/24 12:31:00;;;;;;;;;;;8.00;99.90;;;;;;5014912;28;19929;-75
2021/11/24 12:33:28;;;;;;;;;;;7.90;99.90;;;;;;5014755;28;20390;-75
2021/11/24 12:35:56;;;;;;;;;;;8.00;99.90;;;;;;5015834;28;20343;-74
2021/11/24 12:38:24;;;;;;;;;;;8.00;99.90;;;;;;5016457;28;20292;-75
2021/11/24 12:40:53;;;;;;;;;;;7.80;99.90;;;;;;5021309;28;20390;-76
2021/11/24 12:43:25;;;;;;;;;;;7.80;99.90;;;;;;5029794;28;20004;-77
2021/11/24 12:46:04;;;;;;;;;;;7.80;99.90;;;;;;5032916;28;19968;-75
2021/11/24 12:48:32;;;;;;;;;;;8.00;99.90;;;;;;5018638;28;19933;-77
2021/11/24 12:50:58;;;;;;;;;;;7.90;99.90;;;;;;5017942;28;19929;-77
2021/11/24 12:53:25;;;;;;;;;;;8.00;99.90;;;;;;5016829;28;19925;-77
2021/11/24 12:56:03;;;;;;;;;;;8.00;99.90;;;;;;5019664;28;20067;-77
2021/11/24 12:58:30;;;;;;;;;;;8.10;99.90;;;;;;5019798;28;19947;-76
2021/11/24 13:00:57;;;;;;;;;;;8.20;99.90;;;;;;5018946;28;20307;-75
2021/11/24 13:03:27;;;;;;;;;;;8.20;99.90;;;;;;5019694;28;19925;-76
2021/11/24 13:05:58;;;;;;;;;;;8.10;99.90;;;;;;5016713;28;19980;-77
2021/11/24 13:08:24;;;;;;;;;;;8.00;99.90;;;;;;5020396;28;19940;-80
2021/11/24 13:11:00;;;;;;;;;;;8.00;99.90;;;;;;5026722;28;20374;-80
2021/11/24 13:13:27;;;;;;;;;;;8.10;99.90;;;;;;5019083;28;20307;-85
2021/11/24 13:15:54;;;;;;;;;;;8.10;99.90;;;;;;5015094;28;20399;-77
2021/11/24 13:18:21;;;;;;;;;;;7.90;99.90;;;;;;5022458;28;20338;-79
2021/11/24 13:20:49;;;;;;;;;;;7.90;99.90;;;;;;5018366;28;19925;-80
2021/11/24 13:23:16;;;;;;;;;;;7.80;99.90;;;;;;5011321;28;20028;-79
2021/11/24 13:25:43;;;;;;;;;;;7.80;99.90;;;;;;5018646;28;20384;-81
2021/11/24 13:28:11;;;;;;;;;;;7.90;99.90;;;;;;5019115;28;19984;-80
2021/11/24 13:30:39;;;;;;;;;;;7.90;99.90;;;;;;5025828;28;19931;-81
2021/11/24 13:33:07;;;;;;;;;;;7.80;99.90;;;;;;5021389;28;20311;-81
2021/11/24 13:35:34;;;;;;;;;;;7.70;99.90;;;;;;5020227;28;20012;-80
2021/11/24 13:38:02;;;;;;;;;;;7.60;99.90;;;;;;5019056;28;19961;-81
2021/11/24 13:40:41;;;;;;;;;;;7.50;99.90;;;;;;5021661;28;20396;-78
2021/11/24 13:43:09;;;;;;;;;;;7.50;99.90;;;;;;5018919;28;19932;-78
2021/11/24 13:45:37;;;;;;;;;;;7.50;99.90;;;;;;5024727;28;19933;-79
2021/11/24 13:48:11;;;;;;;;;;;7.50;99.90;;;;;;5027962;28;20372;-80
2021/11/24 13:50:38;;;;;;;;;;;7.60;99.90;;;;;;5023732;28;20010;-78
2021/11/24 13:53:22;;;;;;;;;;;7.60;99.90;;;;;;5019874;28;19972;-79
2021/11/24 13:56:04;;;;;;;;;;;7.50;99.90;;;;;;5024428;28;19979;-79
2021/11/24 13:58:31;;;;;;;;;;;7.60;99.90;;;;;;5024972;28;19969;-78
2021/11/24 14:01:09;;;;;;;;;;;7.60;99.90;;;;;;5022151;28;20394;-84
2021/11/24 14:03:36;;;;;;;;;;;7.60;99.90;;;;;;5022562;28;19932;-80
2021/11/24 14:06:03;;;;;;;;;;;7.70;99.90;;;;;;5017163;28;20335;-78
2021/11/24 14:08:38;;;;;;;;;;;7.70;99.90;;;;;;5018778;28;20571;-80
2021/11/24 14:11:05;;;;;;;;;;;7.70;99.90;;;;;;5016271;28;19974;-80
2021/11/24 14:13:33;;;;;;;;;;;7.70;99.90;;;;;;5014562;28;19934;-80
2021/11/24 14:16:08;;;;;;;;;;;7.60;99.90;;;;;;5014677;28;19932;-78
2021/11/24 14:18:34;;;;;;;;;;;7.60;99.90;;;;;;5017396;28;19933;-81
2021/11/24 14:21:02;;;;;;;;;;;7.60;99.90;;;;;;5013739;28;19932;-79
2021/11/24 14:23:32;;;;;;;;;;;7.60;99.90;;;;;;5028905;28;19972;-84
2021/11/24 14:26:00;;;;;;;;;;;7.60;99.90;;;;;;5025715;28;19925;-86
2021/11/24 14:28:30;;;;;;;;;;;7.60;99.90;;;;;;5025950;28;20013;-81
2021/11/24 14:30:57;;;;;;;;;;;7.50;99.90;;;;;;5023410;28;19925;-79
2021/11/24 14:33:26;;;;;;;;;;;7.60;99.90;;;;;;5026140;28;19977;-77
2021/11/24 14:35:53;;;;;;;;;;;7.60;99.90;;;;;;5017639;28;19929;-77